createdAt,value
2019-02-22T00:01:22.115Z,89.07
2019-02-22T00:03:54.905Z,90.21
2019-02-22T00:06:26.722Z,89.81
2019-02-22T00:08:58.464Z,90.32
2019-02-22T00:11:30.301Z,90.58
2019-02-22T00:14:02.288Z,90.94
2019-02-22T00:16:34.174Z,90.92
2019-02-22T00:19:06.051Z,91.10
2019-02-22T00:21:37.795Z,91.15
2019-02-22T00:24:09.523Z,91.14
2019-02-22T00:26:41.340Z,91.34
2019-02-22T00:29:13.080Z,91.71
2019-02-22T00:31:44.918Z,91.92
2019-02-22T00:34:16.799Z,92.00
2019-02-22T00:36:48.658Z,91.95
2019-02-22T00:39:20.454Z,92.04
2019-02-22T00:41:52.204Z,92.35
2019-02-22T00:44:24.221Z,92.43
2019-02-22T00:46:56.289Z,93.07
2019-02-22T00:49:28.102Z,92.91
2019-02-22T00:52:00.245Z,93.04
2019-02-22T00:54:31.976Z,92.88
2019-02-22T00:57:03.725Z,92.64
2019-02-22T00:59:35.535Z,92.54
2019-02-22T01:02:07.270Z,92.07
2019-02-22T01:04:39.025Z,92.49
2019-02-22T01:07:10.821Z,92.46
2019-02-22T01:09:42.631Z,92.66
2019-02-22T01:12:14.379Z,92.74
2019-02-22T01:14:46.198Z,92.71
2019-02-22T01:17:17.941Z,92.43
2019-02-22T01:19:49.934Z,92.05
2019-02-22T01:22:21.765Z,91.16
2019-02-22T01:24:53.567Z,91.24
2019-02-22T01:27:25.450Z,91.16
2019-02-22T01:29:57.452Z,91.66
2019-02-22T01:32:29.267Z,91.94
2019-02-22T01:35:01.075Z,91.93
2019-02-22T01:37:32.814Z,91.05
2019-02-22T01:40:06.233Z,91.27
2019-02-22T01:42:38.074Z,91.11
2019-02-22T01:45:10.029Z,90.92
2019-02-22T01:47:41.851Z,91.25
2019-02-22T01:50:24.053Z,91.35
2019-02-22T01:52:55.856Z,90.92
2019-02-22T01:55:27.859Z,89.89
2019-02-22T01:57:59.678Z,89.27
2019-02-22T02:00:31.479Z,88.79
2019-02-22T02:03:03.491Z,88.45
2019-02-22T02:05:35.215Z,88.09
2019-02-22T02:08:07.114Z,88.11
2019-02-22T02:10:38.851Z,88.36
2019-02-22T02:13:10.665Z,88.15
2019-02-22T02:15:42.558Z,88.87
2019-02-22T02:18:14.381Z,88.36
2019-02-22T02:20:46.295Z,87.92
2019-02-22T02:23:18.140Z,87.76
2019-02-22T02:25:49.964Z,87.36
2019-02-22T02:28:21.780Z,87.20
2019-02-22T02:30:53.583Z,87.42
2019-02-22T02:33:25.410Z,88.06
2019-02-22T02:35:57.398Z,87.62
2019-02-22T02:38:29.217Z,87.53
2019-02-22T02:41:10.073Z,87.85
2019-02-22T02:43:34.380Z,87.72
2019-02-22T02:46:06.349Z,87.96
2019-02-22T02:48:38.170Z,88.03
2019-02-22T02:51:10.050Z,87.82
2019-02-22T02:53:41.787Z,87.74
2019-02-22T02:56:13.532Z,87.83
2019-02-22T02:58:45.288Z,87.90
2019-02-22T03:01:17.100Z,87.82
2019-02-22T03:03:48.834Z,87.77
2019-02-22T03:06:30.884Z,88.11
2019-02-22T03:09:02.626Z,87.67
2019-02-22T03:11:36.058Z,87.91
2019-02-22T03:14:09.134Z,87.63
2019-02-22T03:16:40.879Z,87.55
2019-02-22T03:19:12.643Z,88.09
2019-02-22T03:21:45.372Z,87.95
2019-02-22T03:24:17.142Z,88.03
2019-02-22T03:26:48.887Z,87.86
2019-02-22T03:29:20.641Z,87.52
2019-02-22T03:31:52.399Z,87.74
2019-02-22T03:34:24.571Z,87.58
2019-02-22T03:36:56.331Z,87.39
2019-02-22T03:39:28.415Z,87.51
2019-02-22T03:42:00.162Z,87.62
2019-02-22T03:44:31.924Z,87.78
2019-02-22T03:47:03.680Z,87.73
2019-02-22T03:49:35.518Z,87.67
2019-02-22T03:52:41.384Z,87.89
2019-02-22T03:55:13.217Z,87.80
2019-02-22T03:57:45.429Z,87.97
2019-02-22T04:00:17.222Z,88.04
2019-02-22T04:02:49.398Z,88.26
2019-02-22T04:05:21.412Z,88.06
2019-02-22T04:07:53.174Z,88.30
2019-02-22T04:10:28.226Z,88.45
2019-02-22T04:13:00.269Z,88.56
2019-02-22T04:15:32.085Z,88.47
2019-02-22T04:18:03.922Z,88.75
2019-02-22T04:20:35.664Z,88.90
2019-02-22T04:23:07.423Z,88.84
2019-02-22T04:25:39.181Z,89.02
2019-02-22T04:28:10.938Z,89.18
2019-02-22T04:30:42.691Z,89.66
2019-02-22T04:33:14.447Z,89.59
2019-02-22T04:35:46.197Z,90.10
2019-02-22T04:38:18.928Z,90.31
2019-02-22T04:40:50.682Z,90.44
2019-02-22T04:43:22.449Z,91.73
2019-02-22T04:45:54.205Z,91.36
2019-02-22T04:48:26.317Z,92.14
2019-02-22T04:50:58.135Z,92.38
2019-02-22T04:53:29.908Z,92.53
2019-02-22T04:56:01.745Z,92.62
2019-02-22T04:58:33.755Z,92.63
2019-02-22T05:01:05.733Z,92.74
2019-02-22T05:03:38.815Z,92.89
2019-02-22T05:06:10.572Z,93.00
2019-02-22T05:08:42.414Z,92.83
2019-02-22T05:11:14.319Z,92.76
2019-02-22T05:13:46.337Z,92.91
2019-02-22T05:16:19.314Z,93.15
2019-02-22T05:18:51.075Z,93.10
2019-02-22T05:21:22.902Z,92.95
2019-02-22T05:23:54.732Z,93.41
2019-02-22T05:26:26.638Z,93.17
2019-02-22T05:28:58.390Z,93.59
2019-02-22T05:31:30.216Z,93.66
2019-02-22T05:34:01.978Z,93.53
2019-02-22T05:36:33.906Z,94.04
2019-02-22T05:39:18.692Z,94.63
2019-02-22T05:41:40.436Z,95.20
2019-02-22T05:44:12.210Z,95.51
2019-02-22T05:46:43.976Z,95.83
2019-02-22T05:49:15.770Z,95.55
2019-02-22T05:51:47.515Z,95.65
2019-02-22T05:54:19.374Z,95.99
2019-02-22T05:56:51.118Z,95.78
2019-02-22T05:59:22.884Z,96.22
2019-02-22T06:01:54.631Z,96.55
2019-02-22T06:04:26.409Z,96.51
2019-02-22T06:06:58.436Z,97.19
2019-02-22T06:09:30.197Z,97.01
2019-02-22T06:12:01.965Z,97.43
2019-02-22T06:14:33.726Z,96.94
2019-02-22T06:17:14.281Z,96.68
2019-02-22T06:19:39.034Z,96.71
2019-02-22T06:22:10.786Z,96.79
2019-02-22T06:24:42.544Z,97.34
2019-02-22T06:27:14.378Z,97.04
2019-02-22T06:29:46.144Z,98.30
2019-02-22T06:32:17.966Z,97.19
2019-02-22T06:34:49.804Z,96.89
2019-02-22T06:37:21.638Z,97.46
2019-02-22T06:39:53.406Z,97.27
2019-02-22T06:42:25.232Z,97.45
2019-02-22T06:44:57.070Z,97.95
2019-02-22T06:47:28.891Z,97.14
2019-02-22T06:50:00.665Z,97.72
2019-02-22T06:52:32.411Z,97.49
2019-02-22T06:55:04.514Z,97.15
2019-02-22T06:57:36.267Z,97.78
2019-02-22T07:00:09.466Z,98.42
2019-02-22T07:02:41.301Z,98.18
2019-02-22T07:05:13.211Z,97.16
2019-02-22T07:07:44.950Z,97.31
2019-02-22T07:10:16.797Z,97.25
2019-02-22T07:12:56.876Z,97.53
2019-02-22T07:15:29.711Z,97.16
2019-02-22T07:18:01.517Z,97.64
2019-02-22T07:20:33.274Z,97.48
2019-02-22T07:23:06.636Z,97.69
2019-02-22T07:25:38.404Z,97.16
2019-02-22T07:28:10.164Z,96.82
2019-02-22T07:30:41.922Z,97.23
2019-02-22T07:33:13.702Z,96.62
2019-02-22T07:35:45.870Z,97.82
2019-02-22T07:38:17.967Z,96.71
2019-02-22T07:40:49.722Z,96.97
2019-02-22T07:43:21.470Z,97.06
2019-02-22T07:45:53.245Z,96.35
2019-02-22T07:48:25.013Z,96.39
2019-02-22T07:50:58.366Z,96.90
2019-02-22T07:53:30.375Z,97.21
2019-02-22T07:56:02.447Z,96.81
2019-02-22T07:58:34.268Z,96.94
2019-02-22T08:01:06.556Z,97.88
2019-02-22T08:03:38.308Z,96.91
2019-02-22T08:06:10.140Z,96.20
2019-02-22T08:08:41.888Z,96.42
2019-02-22T08:11:13.973Z,96.19
2019-02-22T08:13:46.781Z,96.18
2019-02-22T08:16:18.896Z,96.46
2019-02-22T08:19:00.896Z,96.17
2019-02-22T08:21:24.521Z,95.60
2019-02-22T08:23:56.693Z,96.41
2019-02-22T08:26:28.835Z,96.83
2019-02-22T08:29:00.569Z,96.54
2019-02-22T08:31:32.640Z,96.24
2019-02-22T08:34:06.117Z,96.07
2019-02-22T08:36:45.021Z,95.89
2019-02-22T08:39:16.764Z,96.22
2019-02-22T08:41:48.530Z,96.22
2019-02-22T08:44:20.618Z,95.88
2019-02-22T08:46:52.786Z,95.35
2019-02-22T08:49:24.893Z,96.21
2019-02-22T08:51:56.913Z,96.31
2019-02-22T08:54:28.672Z,96.39
2019-02-22T08:57:00.512Z,94.83
2019-02-22T08:59:32.328Z,94.85
2019-02-22T09:02:04.160Z,95.83
2019-02-22T09:04:35.985Z,94.48
2019-02-22T09:07:09.894Z,94.75
2019-02-22T09:09:41.714Z,94.89
2019-02-22T09:12:13.563Z,92.73
2019-02-22T09:14:45.383Z,93.37
2019-02-22T09:17:17.152Z,93.01
2019-02-22T09:19:49.081Z,93.06
2019-02-22T09:22:23.194Z,93.52
2019-02-22T09:24:54.684Z,92.62
2019-02-22T09:27:26.770Z,91.10
2019-02-22T09:29:59.283Z,91.26
2019-02-22T09:32:31.117Z,90.04
2019-02-22T09:35:02.864Z,89.78
2019-02-22T09:37:34.624Z,89.27
2019-02-22T09:40:08.194Z,88.17
2019-02-22T09:42:40.027Z,87.62
2019-02-22T09:45:12.375Z,87.48
2019-02-22T09:47:44.218Z,88.30
2019-02-22T09:50:16.142Z,88.29
2019-02-22T09:52:48.086Z,87.54
2019-02-22T09:55:19.914Z,86.88
2019-02-22T09:57:51.680Z,86.21
2019-02-22T10:00:23.508Z,84.82
2019-02-22T10:02:55.270Z,84.99
2019-02-22T10:05:27.133Z,85.18
2019-02-22T10:07:58.897Z,84.28
2019-02-22T10:10:31.071Z,83.47
2019-02-22T10:13:02.829Z,82.58
2019-02-22T10:15:34.589Z,82.72
2019-02-22T10:18:06.749Z,83.44
2019-02-22T10:20:38.502Z,82.38
2019-02-22T10:23:10.371Z,81.95
2019-02-22T10:25:42.197Z,80.60
2019-02-22T10:28:17.891Z,81.65
2019-02-22T10:30:48.026Z,82.59
2019-02-22T10:33:36.916Z,80.08
2019-02-22T10:36:14.006Z,77.75
2019-02-22T10:38:45.771Z,78.17
2019-02-22T10:41:17.710Z,76.06
2019-02-22T10:43:49.693Z,77.02
2019-02-22T10:46:22.413Z,75.69
2019-02-22T10:48:54.510Z,76.45
2019-02-22T10:51:26.340Z,76.12
2019-02-22T10:53:58.164Z,75.91
2019-02-22T10:56:30.247Z,75.66
2019-02-22T10:59:02.021Z,74.87
2019-02-22T11:01:33.928Z,75.11
2019-02-22T11:04:05.774Z,74.79
2019-02-22T11:06:37.524Z,73.95
2019-02-22T11:09:09.919Z,74.94
2019-02-22T11:11:41.915Z,74.36
2019-02-22T11:14:13.783Z,73.20
2019-02-22T11:16:45.610Z,72.04
2019-02-22T11:19:17.402Z,72.67
2019-02-22T11:21:49.168Z,72.63
2019-02-22T11:24:20.949Z,73.83
2019-02-22T11:26:52.827Z,72.71
2019-02-22T11:29:24.835Z,74.08
2019-02-22T11:31:56.942Z,73.49
2019-02-22T11:34:28.702Z,71.53
2019-02-22T11:37:00.528Z,73.37
2019-02-22T11:39:32.363Z,73.60
2019-02-22T11:42:04.189Z,72.64
2019-02-22T11:44:40.147Z,72.75
2019-02-22T11:47:10.426Z,73.39
2019-02-22T11:49:42.192Z,72.91
2019-02-22T11:52:14.005Z,71.49
2019-02-22T11:54:46.026Z,71.73
2019-02-22T11:57:19.619Z,71.33
2019-02-22T11:59:51.431Z,70.99
2019-02-22T12:02:23.254Z,71.06
2019-02-22T12:04:55.662Z,72.05
2019-02-22T12:07:27.955Z,71.70
2019-02-22T12:09:59.704Z,71.69
2019-02-22T12:12:33.072Z,70.50
2019-02-22T12:15:05.135Z,70.57
2019-02-22T12:17:38.716Z,69.57
2019-02-22T12:20:10.637Z,70.62
2019-02-22T12:22:42.667Z,70.38
2019-02-22T12:25:14.708Z,69.91
2019-02-22T12:27:46.458Z,69.03
2019-02-22T12:30:18.367Z,70.23
2019-02-22T12:32:50.125Z,69.52
2019-02-22T12:35:21.888Z,68.76
2019-02-22T12:37:53.707Z,69.25
2019-02-22T12:40:25.635Z,67.72
2019-02-22T12:42:57.441Z,69.14
2019-02-22T12:45:29.201Z,69.84
2019-02-22T12:48:00.942Z,69.87
2019-02-22T12:50:32.697Z,69.24
2019-02-22T12:53:04.739Z,70.20
2019-02-22T12:55:37.498Z,67.89
2019-02-22T12:58:10.030Z,68.71
2019-02-22T13:00:42.101Z,69.22
2019-02-22T13:03:14.183Z,68.77
2019-02-22T13:05:46.091Z,68.64
2019-02-22T13:08:17.905Z,67.24
2019-02-22T13:10:49.736Z,69.30
2019-02-22T13:13:21.643Z,67.94
2019-02-22T13:15:53.407Z,68.41
2019-02-22T13:18:25.176Z,68.81
2019-02-22T13:20:57.015Z,69.40
2019-02-22T13:23:28.846Z,69.44
2019-02-22T13:26:00.612Z,69.31
2019-02-22T13:28:32.419Z,68.85
2019-02-22T13:31:04.341Z,68.98
2019-02-22T13:33:36.083Z,70.48
2019-02-22T13:36:08.304Z,69.33
2019-02-22T13:38:40.130Z,69.27
2019-02-22T13:41:12.032Z,69.24
2019-02-22T13:43:43.855Z,69.68
2019-02-22T13:46:16.695Z,68.77
2019-02-22T13:48:48.542Z,69.33
2019-02-22T13:51:20.314Z,69.40
2019-02-22T13:53:52.328Z,70.45
2019-02-22T13:56:29.561Z,69.95
2019-02-22T13:58:57.718Z,70.46
2019-02-22T14:01:30.114Z,70.05
2019-02-22T14:04:01.909Z,70.27
2019-02-22T14:06:33.749Z,71.07
2019-02-22T14:09:06.445Z,70.76
2019-02-22T14:11:39.847Z,71.01
2019-02-22T14:14:12.133Z,71.08
2019-02-22T14:16:44.216Z,70.80
2019-02-22T14:19:15.961Z,70.70
2019-02-22T14:21:48.074Z,70.60
2019-02-22T14:24:19.807Z,71.25
2019-02-22T14:26:51.590Z,71.68
2019-02-22T14:29:23.417Z,70.88
2019-02-22T14:31:55.170Z,70.83
2019-02-22T14:34:26.925Z,70.80
2019-02-22T14:36:58.835Z,70.91
2019-02-22T14:39:30.546Z,71.72
2019-02-22T14:42:02.727Z,71.82
2019-02-22T14:44:34.576Z,71.45
2019-02-22T14:47:06.487Z,72.02
2019-02-22T14:49:38.242Z,72.27
2019-02-22T14:52:12.637Z,72.31
2019-02-22T14:54:43.946Z,72.09
2019-02-22T14:57:16.829Z,72.23
2019-02-22T14:59:49.632Z,72.26
2019-02-22T15:02:21.543Z,72.22
2019-02-22T15:04:53.291Z,71.79
2019-02-22T15:07:25.127Z,71.78
2019-02-22T15:09:58.902Z,71.08
2019-02-22T15:12:30.844Z,71.82
2019-02-22T15:15:02.601Z,71.57
2019-02-22T15:17:40.227Z,72.13
2019-02-22T15:20:12.128Z,72.02
2019-02-22T15:22:43.901Z,72.18
2019-02-22T15:25:16.864Z,72.24
2019-02-22T15:27:48.705Z,71.40
2019-02-22T15:30:20.797Z,69.79
2019-02-22T15:32:52.669Z,69.67
2019-02-22T15:35:24.561Z,69.57
2019-02-22T15:37:56.329Z,69.47
2019-02-22T15:40:28.102Z,70.18
2019-02-22T15:42:59.867Z,70.42
2019-02-22T15:45:31.791Z,70.64
2019-02-22T15:48:03.598Z,70.97
2019-02-22T15:50:35.403Z,70.86
2019-02-22T15:53:07.516Z,71.38
2019-02-22T15:55:39.609Z,70.93
2019-02-22T15:58:11.634Z,70.83
2019-02-22T16:00:43.470Z,70.93
2019-02-22T16:03:15.631Z,71.29
2019-02-22T16:05:47.560Z,71.16
2019-02-22T16:08:19.600Z,72.05
2019-02-22T16:10:51.725Z,72.01
2019-02-22T16:13:23.813Z,72.12
2019-02-22T16:15:55.729Z,72.04
2019-02-22T16:18:27.578Z,72.57
2019-02-22T16:20:59.332Z,72.64
2019-02-22T16:23:31.093Z,72.98
2019-02-22T16:26:02.935Z,73.14
2019-02-22T16:28:34.696Z,73.09
2019-02-22T16:31:06.616Z,73.43
2019-02-22T16:33:38.383Z,73.46
2019-02-22T16:36:10.141Z,73.84
2019-02-22T16:38:42.162Z,73.80
2019-02-22T16:41:13.994Z,73.81
2019-02-22T16:43:47.231Z,74.11
2019-02-22T16:46:19.955Z,74.35
2019-02-22T16:48:51.973Z,74.55
2019-02-22T16:51:25.052Z,74.36
2019-02-22T16:53:57.153Z,74.48
2019-02-22T16:56:29.962Z,74.38
2019-02-22T16:59:01.729Z,74.42
2019-02-22T17:01:33.541Z,74.54
2019-02-22T17:04:06.752Z,75.10
2019-02-22T17:06:38.586Z,75.03
2019-02-22T17:09:10.523Z,75.08
2019-02-22T17:11:42.360Z,75.09
2019-02-22T17:14:14.455Z,75.27
2019-02-22T17:16:46.548Z,75.48
2019-02-22T17:19:18.710Z,75.47
2019-02-22T17:21:50.539Z,75.30
2019-02-22T17:24:22.298Z,75.04
2019-02-22T17:26:54.053Z,75.40
2019-02-22T17:29:25.820Z,75.48
2019-02-22T17:31:57.633Z,75.59
2019-02-22T17:34:29.399Z,75.78
2019-02-22T17:37:01.412Z,75.75
2019-02-22T17:39:33.173Z,75.83
2019-02-22T17:42:05.009Z,76.02
2019-02-22T17:44:36.803Z,76.16
2019-02-22T17:47:09.683Z,76.36
2019-02-22T17:49:41.560Z,76.78
2019-02-22T17:52:13.927Z,77.09
2019-02-22T17:54:45.766Z,77.37
2019-02-22T17:57:17.802Z,77.47
2019-02-22T17:59:49.817Z,77.35
2019-02-22T18:02:21.640Z,77.06
2019-02-22T18:04:53.691Z,77.08
2019-02-22T18:07:25.578Z,77.08
2019-02-22T18:09:57.420Z,76.94
2019-02-22T18:12:29.191Z,76.81
2019-02-22T18:15:00.975Z,76.67
2019-02-22T18:17:32.713Z,76.52
2019-02-22T18:20:04.638Z,76.26
2019-02-22T18:22:36.382Z,76.12
2019-02-22T18:25:08.875Z,75.75
2019-02-22T18:27:40.694Z,75.89
2019-02-22T18:30:13.446Z,75.84
2019-02-22T18:32:45.188Z,75.97
2019-02-22T18:35:17.215Z,75.66
2019-02-22T18:37:48.969Z,75.52
2019-02-22T18:40:20.751Z,75.59
2019-02-22T18:42:52.893Z,75.42
2019-02-22T18:45:24.665Z,75.34
2019-02-22T18:47:56.477Z,75.18
2019-02-22T18:50:28.229Z,75.07
2019-02-22T18:52:59.991Z,75.14
2019-02-22T18:55:31.892Z,74.74
2019-02-22T18:58:03.887Z,74.76
2019-02-22T19:00:35.772Z,74.91
2019-02-22T19:03:10.709Z,75.22
2019-02-22T19:05:42.526Z,75.44
2019-02-22T19:08:14.300Z,75.67
2019-02-22T19:10:46.070Z,74.82
2019-02-22T19:13:18.178Z,75.18
2019-02-22T19:15:50.261Z,75.70
2019-02-22T19:18:22.040Z,76.05
2019-02-22T19:20:53.802Z,75.27
2019-02-22T19:23:26.704Z,75.71
2019-02-22T19:25:59.673Z,76.48
2019-02-22T19:28:31.450Z,76.73
2019-02-22T19:31:03.205Z,76.63
2019-02-22T19:33:34.966Z,76.67
2019-02-22T19:36:06.872Z,76.32
2019-02-22T19:38:38.645Z,76.64
2019-02-22T19:41:10.457Z,76.59
2019-02-22T19:43:42.226Z,77.04
2019-02-22T19:46:14.117Z,77.21
2019-02-22T19:48:46.140Z,77.27
2019-02-22T19:51:17.884Z,77.73
2019-02-22T19:53:49.664Z,78.46
2019-02-22T19:56:21.516Z,78.49
2019-02-22T19:58:53.288Z,77.95
2019-02-22T20:01:25.210Z,77.49
2019-02-22T20:03:57.058Z,78.17
2019-02-22T20:06:28.808Z,78.69
2019-02-22T20:09:00.578Z,77.96
2019-02-22T20:11:33.141Z,78.96
2019-02-22T20:14:05.244Z,78.46
2019-02-22T20:16:36.983Z,78.31
2019-02-22T20:19:09.748Z,78.29
2019-02-22T20:21:41.493Z,78.41
2019-02-22T20:24:13.402Z,78.65
2019-02-22T20:26:45.421Z,79.34
2019-02-22T20:29:17.200Z,79.57
2019-02-22T20:31:48.959Z,79.64
2019-02-22T20:34:21.712Z,79.92
2019-02-22T20:36:54.441Z,79.46
2019-02-22T20:39:26.268Z,79.45
2019-02-22T20:41:58.081Z,79.41
2019-02-22T20:44:29.923Z,79.50
2019-02-22T20:47:01.680Z,79.84
2019-02-22T20:49:33.428Z,79.79
2019-02-22T20:52:05.273Z,79.54
2019-02-22T20:54:37.284Z,79.47
2019-02-22T20:57:09.570Z,78.97
2019-02-22T20:59:41.478Z,78.58
2019-02-22T21:02:14.196Z,78.46
2019-02-22T21:04:46.052Z,78.96
2019-02-22T21:07:17.797Z,79.46
2019-02-22T21:09:49.552Z,79.83
2019-02-22T21:12:21.304Z,79.35
2019-02-22T21:14:53.154Z,79.47
2019-02-22T21:17:24.974Z,79.74
2019-02-22T21:19:56.798Z,79.14
2019-02-22T21:22:28.624Z,79.34
2019-02-22T21:25:00.389Z,79.00
2019-02-22T21:27:32.476Z,79.59
2019-02-22T21:30:04.321Z,79.75
2019-02-22T21:32:37.369Z,79.29
2019-02-22T21:35:09.953Z,79.18
2019-02-22T21:37:47.932Z,78.68
2019-02-22T21:40:21.811Z,78.98
2019-02-22T21:42:53.577Z,78.59
2019-02-22T21:45:25.432Z,78.67
2019-02-22T21:47:57.181Z,79.51
2019-02-22T21:50:29.023Z,80.03
2019-02-22T21:53:00.781Z,80.05
2019-02-22T21:55:32.561Z,80.43
2019-02-22T21:58:06.006Z,80.58
2019-02-22T22:00:37.851Z,80.09
2019-02-22T22:03:09.599Z,80.17
2019-02-22T22:05:41.616Z,80.07
2019-02-22T22:08:13.702Z,79.56
2019-02-22T22:10:45.493Z,79.31
2019-02-22T22:13:17.328Z,79.52
2019-02-22T22:15:49.098Z,79.61
2019-02-22T22:18:20.995Z,79.38
2019-02-22T22:20:52.919Z,78.94
2019-02-22T22:23:24.941Z,79.54
2019-02-22T22:25:56.711Z,78.95
2019-02-22T22:28:28.544Z,79.13
2019-02-22T22:31:00.634Z,79.40
2019-02-22T22:33:32.385Z,79.81
2019-02-22T22:36:04.385Z,80.02
2019-02-22T22:38:36.150Z,79.16
2019-02-22T22:41:08.191Z,78.74
2019-02-22T22:43:39.951Z,78.67
2019-02-22T22:46:11.800Z,78.79
2019-02-22T22:48:50.439Z,78.67
2019-02-22T22:51:17.139Z,79.26
2019-02-22T22:53:48.933Z,78.97
2019-02-22T22:56:21.234Z,78.42
2019-02-22T22:58:52.998Z,78.48
2019-02-22T23:01:26.587Z,78.33
2019-02-22T23:03:58.560Z,78.46
2019-02-22T23:06:30.860Z,78.67
2019-02-22T23:09:03.377Z,78.41
2019-02-22T23:11:36.891Z,78.12
2019-02-22T23:14:09.815Z,78.77
2019-02-22T23:16:41.941Z,78.72
2019-02-22T23:19:13.858Z,78.67
2019-02-22T23:21:45.703Z,79.14
2019-02-22T23:24:17.613Z,79.13
2019-02-22T23:26:49.739Z,79.25
2019-02-22T23:29:21.596Z,79.49
2019-02-22T23:31:53.512Z,79.17
2019-02-22T23:34:25.361Z,78.98
2019-02-22T23:36:57.124Z,79.14
2019-02-22T23:39:29.150Z,79.49
2019-02-22T23:42:00.939Z,79.04
2019-02-22T23:44:32.702Z,78.60
2019-02-22T23:47:04.548Z,78.16
2019-02-22T23:49:36.397Z,78.21
2019-02-22T23:52:08.239Z,78.82
2019-02-22T23:54:40.022Z,79.06
2019-02-22T23:57:11.846Z,79.54
2019-02-22T23:59:43.632Z,79.69
